sensor_id;sensor_type;location;lat;lon;timestamp;temperature;humidity
35531;DHT22;21637;53.352;-6.356;2022-12-16T00:03:35;-1.60;99.90
35531;DHT22;21637;53.352;-6.356;2022-12-16T00:06:01;-1.70;99.90
35531;DHT22;21637;53.352;-6.356;2022-12-16T00:08:30;-1.60;99.90
35531;DHT22;21637;53.352;-6.356;2022-12-16T00:10:56;-1.60;99.90
35531;DHT22;21637;53.352;-6.356;2022-12-16T00:13:22;-1.60;99.90
35531;DHT22;21637;53.352;-6.356;2022-12-16T00:15:48;-1.60;99.90
35531;DHT22;21637;53.352;-6.356;2022-12-16T00:18:13;-1.70;99.90
35531;DHT22;21637;53.352;-6.356;2022-12-16T00:20:43;-1.70;99.90
35531;DHT22;21637;53.352;-6.356;2022-12-16T00:23:09;-1.70;99.90
35531;DHT22;21637;53.352;-6.356;2022-12-16T00:25:34;-1.70;99.90
35531;DHT22;21637;53.352;-6.356;2022-12-16T00:28:00;-1.80;99.90
35531;DHT22;21637;53.352;-6.356;2022-12-16T00:30:25;-1.70;99.90
35531;DHT22;21637;53.352;-6.356;2022-12-16T00:32:51;-1.80;99.90
35531;DHT22;21637;53.352;-6.356;2022-12-16T00:35:16;-1.80;99.90
35531;DHT22;21637;53.352;-6.356;2022-12-16T00:37:42;-1.80;99.90
35531;DHT22;21637;53.352;-6.356;2022-12-16T00:40:08;-1.80;99.90
35531;DHT22;21637;53.352;-6.356;2022-12-16T00:42:33;-1.90;99.90
35531;DHT22;21637;53.352;-6.356;2022-12-16T00:44:59;-1.90;99.90
35531;DHT22;21637;53.352;-6.356;2022-12-16T00:47:24;-1.90;99.90
35531;DHT22;21637;53.352;-6.356;2022-12-16T00:49:50;-1.90;99.90
35531;DHT22;21637;53.352;-6.356;2022-12-16T00:52:16;-1.90;99.90
35531;DHT22;21637;53.352;-6.356;2022-12-16T00:54:41;-1.90;99.90
35531;DHT22;21637;53.352;-6.356;2022-12-16T00:57:07;-1.90;99.90
35531;DHT22;21637;53.352;-6.356;2022-12-16T00:59:32;-1.90;99.90
35531;DHT22;21637;53.352;-6.356;2022-12-16T01:01:58;-1.90;99.90
35531;DHT22;21637;53.352;-6.356;2022-12-16T01:04:23;-1.90;99.90
35531;DHT22;21637;53.352;-6.356;2022-12-16T01:06:51;-1.90;99.90
35531;DHT22;21637;53.352;-6.356;2022-12-16T01:09:16;-1.90;99.90
35531;DHT22;21637;53.352;-6.356;2022-12-16T01:11:42;-1.90;99.90
35531;DHT22;21637;53.352;-6.356;2022-12-16T01:14:07;-2.00;99.90
35531;DHT22;21637;53.352;-6.356;2022-12-16T01:16:33;-2.00;99.90
35531;DHT22;21637;53.352;-6.356;2022-12-16T01:18:59;-2.00;99.90
35531;DHT22;21637;53.352;-6.356;2022-12-16T01:21:24;-2.00;99.90
35531;DHT22;21637;53.352;-6.356;2022-12-16T01:23:50;-2.00;99.90
35531;DHT22;21637;53.352;-6.356;2022-12-16T01:26:16;-1.90;99.90
35531;DHT22;21637;53.352;-6.356;2022-12-16T01:28:42;-1.80;99.90
35531;DHT22;21637;53.352;-6.356;2022-12-16T01:31:07;-1.80;99.90
35531;DHT22;21637;53.352;-6.356;2022-12-16T01:33:33;-1.80;99.90
35531;DHT22;21637;53.352;-6.356;2022-12-16T01:35:59;-1.80;99.90
35531;DHT22;21637;53.352;-6.356;2022-12-16T01:38:25;-1.80;99.90
35531;DHT22;21637;53.352;-6.356;2022-12-16T01:40:51;-1.80;99.90
35531;DHT22;21637;53.352;-6.356;2022-12-16T01:43:16;-1.70;99.90
35531;DHT22;21637;53.352;-6.356;2022-12-16T01:45:43;-1.70;99.90
35531;DHT22;21637;53.352;-6.356;2022-12-16T01:48:31;-1.70;99.90
35531;DHT22;21637;53.352;-6.356;2022-12-16T01:51:01;-1.70;99.90
35531;DHT22;21637;53.352;-6.356;2022-12-16T01:53:27;-1.60;99.90
35531;DHT22;21637;53.352;-6.356;2022-12-16T01:55:54;-1.60;99.90
35531;DHT22;21637;53.352;-6.356;2022-12-16T01:58:22;-1.50;99.90
35531;DHT22;21637;53.352;-6.356;2022-12-16T02:00:49;-1.50;99.90
35531;DHT22;21637;53.352;-6.356;2022-12-16T02:03:14;-1.50;99.90
35531;DHT22;21637;53.352;-6.356;2022-12-16T02:05:40;-1.50;99.90
35531;DHT22;21637;53.352;-6.356;2022-12-16T02:08:16;-1.60;99.90
35531;DHT22;21637;53.352;-6.356;2022-12-16T02:15:40;-1.50;99.90
35531;DHT22;21637;53.352;-6.356;2022-12-16T02:18:14;-1.50;99.90
35531;DHT22;21637;53.352;-6.356;2022-12-16T02:31:18;-1.70;99.90
35531;DHT22;21637;53.352;-6.356;2022-12-16T02:33:55;-1.70;99.90
35531;DHT22;21637;53.352;-6.356;2022-12-16T02:36:24;-1.70;99.90
35531;DHT22;21637;53.352;-6.356;2022-12-16T02:38:55;-1.80;99.90
35531;DHT22;21637;53.352;-6.356;2022-12-16T02:46:17;-1.80;99.90
35531;DHT22;21637;53.352;-6.356;2022-12-16T02:48:43;-1.80;99.90
35531;DHT22;21637;53.352;-6.356;2022-12-16T02:51:09;-1.80;99.90
35531;DHT22;21637;53.352;-6.356;2022-12-16T02:53:35;-1.80;99.90
35531;DHT22;21637;53.352;-6.356;2022-12-16T03:03:39;-1.90;99.90
35531;DHT22;21637;53.352;-6.356;2022-12-16T03:06:07;-1.90;99.90
35531;DHT22;21637;53.352;-6.356;2022-12-16T03:08:36;-2.00;99.90
35531;DHT22;21637;53.352;-6.356;2022-12-16T03:11:04;-1.90;99.90
35531;DHT22;21637;53.352;-6.356;2022-12-16T03:13:32;-1.90;99.90
35531;DHT22;21637;53.352;-6.356;2022-12-16T03:15:59;-1.90;99.90
35531;DHT22;21637;53.352;-6.356;2022-12-16T03:18:25;-1.90;99.90
35531;DHT22;21637;53.352;-6.356;2022-12-16T03:20:56;-1.90;99.90
35531;DHT22;21637;53.352;-6.356;2022-12-16T03:23:27;-1.90;99.90
35531;DHT22;21637;53.352;-6.356;2022-12-16T03:25:55;-1.90;99.90
35531;DHT22;21637;53.352;-6.356;2022-12-16T03:30:48;-1.80;99.90
35531;DHT22;21637;53.352;-6.356;2022-12-16T03:33:25;-1.80;99.90
35531;DHT22;21637;53.352;-6.356;2022-12-16T03:35:56;-1.80;99.90
35531;DHT22;21637;53.352;-6.356;2022-12-16T03:38:23;-1.80;99.90
35531;DHT22;21637;53.352;-6.356;2022-12-16T03:40:50;-1.80;99.90
35531;DHT22;21637;53.352;-6.356;2022-12-16T03:43:16;-1.70;99.90
35531;DHT22;21637;53.352;-6.356;2022-12-16T03:45:43;-1.80;99.90
35531;DHT22;21637;53.352;-6.356;2022-12-16T03:48:12;-1.70;99.90
35531;DHT22;21637;53.352;-6.356;2022-12-16T03:50:38;-1.70;99.90
35531;DHT22;21637;53.352;-6.356;2022-12-16T03:53:04;-1.70;99.90
35531;DHT22;21637;53.352;-6.356;2022-12-16T03:55:30;-1.60;99.90
35531;DHT22;21637;53.352;-6.356;2022-12-16T03:57:56;-1.60;99.90
35531;DHT22;21637;53.352;-6.356;2022-12-16T04:00:21;-1.60;99.90
35531;DHT22;21637;53.352;-6.356;2022-12-16T04:02:48;-1.50;99.90
35531;DHT22;21637;53.352;-6.356;2022-12-16T04:05:13;-1.50;99.90
35531;DHT22;21637;53.352;-6.356;2022-12-16T04:07:39;-1.50;99.90
35531;DHT22;21637;53.352;-6.356;2022-12-16T04:10:05;-1.40;99.90
35531;DHT22;21637;53.352;-6.356;2022-12-16T04:12:31;-1.50;99.90
35531;DHT22;21637;53.352;-6.356;2022-12-16T04:15:15;-1.40;99.90
35531;DHT22;21637;53.352;-6.356;2022-12-16T04:17:44;-1.40;99.90
35531;DHT22;21637;53.352;-6.356;2022-12-16T04:20:31;-1.40;99.90
35531;DHT22;21637;53.352;-6.356;2022-12-16T04:23:16;-1.40;99.90
35531;DHT22;21637;53.352;-6.356;2022-12-16T04:26:01;-1.40;99.90
35531;DHT22;21637;53.352;-6.356;2022-12-16T04:28:27;-1.40;99.90
35531;DHT22;21637;53.352;-6.356;2022-12-16T04:30:52;-1.40;99.90
35531;DHT22;21637;53.352;-6.356;2022-12-16T04:33:18;-1.40;99.90
35531;DHT22;21637;53.352;-6.356;2022-12-16T04:36:02;-1.40;99.90
35531;DHT22;21637;53.352;-6.356;2022-12-16T04:38:46;-1.30;99.90
35531;DHT22;21637;53.352;-6.356;2022-12-16T04:41:31;-1.40;99.90
35531;DHT22;21637;53.352;-6.356;2022-12-16T04:44:15;-1.30;99.90
35531;DHT22;21637;53.352;-6.356;2022-12-16T04:47:01;-1.40;99.90
35531;DHT22;21637;53.352;-6.356;2022-12-16T04:49:45;-1.40;99.90
35531;DHT22;21637;53.352;-6.356;2022-12-16T04:52:29;-1.40;99.90
35531;DHT22;21637;53.352;-6.356;2022-12-16T04:55:14;-1.40;99.90
35531;DHT22;21637;53.352;-6.356;2022-12-16T04:57:59;-1.40;99.90
35531;DHT22;21637;53.352;-6.356;2022-12-16T05:00:44;-1.40;99.90
35531;DHT22;21637;53.352;-6.356;2022-12-16T05:03:29;-1.40;99.90
35531;DHT22;21637;53.352;-6.356;2022-12-16T05:06:13;-1.40;99.90
35531;DHT22;21637;53.352;-6.356;2022-12-16T05:08:57;-1.50;99.90
35531;DHT22;21637;53.352;-6.356;2022-12-16T05:11:42;-1.50;99.90
35531;DHT22;21637;53.352;-6.356;2022-12-16T05:14:26;-1.50;99.90
35531;DHT22;21637;53.352;-6.356;2022-12-16T05:17:10;-1.50;99.90
35531;DHT22;21637;53.352;-6.356;2022-12-16T05:19:54;-1.60;99.90
35531;DHT22;21637;53.352;-6.356;2022-12-16T05:22:38;-1.60;99.90
35531;DHT22;21637;53.352;-6.356;2022-12-16T05:25:23;-1.60;99.90
35531;DHT22;21637;53.352;-6.356;2022-12-16T05:28:07;-1.60;99.90
35531;DHT22;21637;53.352;-6.356;2022-12-16T05:30:51;-1.70;99.90
35531;DHT22;21637;53.352;-6.356;2022-12-16T05:33:36;-1.70;99.90
35531;DHT22;21637;53.352;-6.356;2022-12-16T05:36:20;-1.70;99.90
35531;DHT22;21637;53.352;-6.356;2022-12-16T05:39:04;-1.80;99.90
35531;DHT22;21637;53.352;-6.356;2022-12-16T05:41:48;-1.80;99.90
35531;DHT22;21637;53.352;-6.356;2022-12-16T05:44:32;-1.80;99.90
35531;DHT22;21637;53.352;-6.356;2022-12-16T05:47:16;-1.80;99.90
35531;DHT22;21637;53.352;-6.356;2022-12-16T05:50:00;-1.80;99.90
35531;DHT22;21637;53.352;-6.356;2022-12-16T05:52:52;-1.80;99.90
35531;DHT22;21637;53.352;-6.356;2022-12-16T05:55:36;-1.80;99.90
35531;DHT22;21637;53.352;-6.356;2022-12-16T05:58:20;-1.80;99.90
35531;DHT22;21637;53.352;-6.356;2022-12-16T06:01:04;-1.80;99.90
35531;DHT22;21637;53.352;-6.356;2022-12-16T06:03:49;-1.80;99.90
35531;DHT22;21637;53.352;-6.356;2022-12-16T06:06:33;-1.90;99.90
35531;DHT22;21637;53.352;-6.356;2022-12-16T06:09:17;-1.90;99.90
35531;DHT22;21637;53.352;-6.356;2022-12-16T06:12:01;-1.90;99.90
35531;DHT22;21637;53.352;-6.356;2022-12-16T06:14:45;-1.90;99.90
35531;DHT22;21637;53.352;-6.356;2022-12-16T06:17:29;-1.90;99.90
35531;DHT22;21637;53.352;-6.356;2022-12-16T06:20:14;-2.00;99.90
35531;DHT22;21637;53.352;-6.356;2022-12-16T06:22:58;-2.00;99.90
35531;DHT22;21637;53.352;-6.356;2022-12-16T06:25:42;-2.00;99.90
35531;DHT22;21637;53.352;-6.356;2022-12-16T06:28:26;-2.10;99.90
35531;DHT22;21637;53.352;-6.356;2022-12-16T06:31:10;-2.10;99.90
35531;DHT22;21637;53.352;-6.356;2022-12-16T06:33:54;-2.10;99.90
35531;DHT22;21637;53.352;-6.356;2022-12-16T06:36:39;-2.00;99.90
35531;DHT22;21637;53.352;-6.356;2022-12-16T06:39:23;-2.10;99.90
35531;DHT22;21637;53.352;-6.356;2022-12-16T06:42:07;-2.00;99.90
35531;DHT22;21637;53.352;-6.356;2022-12-16T06:44:51;-2.00;99.90
35531;DHT22;21637;53.352;-6.356;2022-12-16T06:47:37;-2.10;99.90
35531;DHT22;21637;53.352;-6.356;2022-12-16T06:50:21;-2.00;99.90
35531;DHT22;21637;53.352;-6.356;2022-12-16T06:53:05;-2.00;99.90
35531;DHT22;21637;53.352;-6.356;2022-12-16T06:55:49;-2.00;99.90
35531;DHT22;21637;53.352;-6.356;2022-12-16T06:58:33;-2.10;99.90
35531;DHT22;21637;53.352;-6.356;2022-12-16T07:01:17;-2.00;99.90
35531;DHT22;21637;53.352;-6.356;2022-12-16T07:04:02;-2.00;99.90
35531;DHT22;21637;53.352;-6.356;2022-12-16T07:06:46;-2.00;99.90
35531;DHT22;21637;53.352;-6.356;2022-12-16T07:09:30;-2.00;99.90
35531;DHT22;21637;53.352;-6.356;2022-12-16T07:12:14;-2.10;99.90
35531;DHT22;21637;53.352;-6.356;2022-12-16T07:14:58;-2.10;99.90
35531;DHT22;21637;53.352;-6.356;2022-12-16T07:17:43;-2.10;99.90
35531;DHT22;21637;53.352;-6.356;2022-12-16T07:20:28;-2.10;99.90
35531;DHT22;21637;53.352;-6.356;2022-12-16T07:23:12;-2.10;99.90
35531;DHT22;21637;53.352;-6.356;2022-12-16T07:25:56;-2.10;99.90
35531;DHT22;21637;53.352;-6.356;2022-12-16T07:28:40;-2.10;99.90
35531;DHT22;21637;53.352;-6.356;2022-12-16T07:31:24;-2.10;99.90
35531;DHT22;21637;53.352;-6.356;2022-12-16T07:34:08;-2.10;99.90
35531;DHT22;21637;53.352;-6.356;2022-12-16T07:36:52;-2.10;99.90
35531;DHT22;21637;53.352;-6.356;2022-12-16T07:39:37;-2.20;99.90
35531;DHT22;21637;53.352;-6.356;2022-12-16T07:42:21;-2.20;99.90
35531;DHT22;21637;53.352;-6.356;2022-12-16T07:45:06;-2.20;99.90
35531;DHT22;21637;53.352;-6.356;2022-12-16T07:47:50;-2.20;99.90
35531;DHT22;21637;53.352;-6.356;2022-12-16T07:50:35;-2.20;99.90
35531;DHT22;21637;53.352;-6.356;2022-12-16T07:53:19;-2.20;99.90
35531;DHT22;21637;53.352;-6.356;2022-12-16T07:56:04;-2.20;99.90
35531;DHT22;21637;53.352;-6.356;2022-12-16T07:58:48;-2.20;99.90
35531;DHT22;21637;53.352;-6.356;2022-12-16T08:01:32;-2.30;99.90
35531;DHT22;21637;53.352;-6.356;2022-12-16T08:04:16;-2.30;99.90
35531;DHT22;21637;53.352;-6.356;2022-12-16T08:07:00;-2.30;99.90
35531;DHT22;21637;53.352;-6.356;2022-12-16T08:09:45;-2.30;99.90
35531;DHT22;21637;53.352;-6.356;2022-12-16T08:12:29;-2.30;99.90
35531;DHT22;21637;53.352;-6.356;2022-12-16T08:15:13;-2.30;99.90
35531;DHT22;21637;53.352;-6.356;2022-12-16T08:17:57;-2.30;99.90
35531;DHT22;21637;53.352;-6.356;2022-12-16T08:20:41;-2.30;99.90
35531;DHT22;21637;53.352;-6.356;2022-12-16T08:23:26;-2.30;99.90
35531;DHT22;21637;53.352;-6.356;2022-12-16T08:26:10;-2.30;99.90
35531;DHT22;21637;53.352;-6.356;2022-12-16T08:28:54;-2.40;99.90
35531;DHT22;21637;53.352;-6.356;2022-12-16T08:31:38;-2.40;99.90
35531;DHT22;21637;53.352;-6.356;2022-12-16T08:34:22;-2.40;99.90
35531;DHT22;21637;53.352;-6.356;2022-12-16T08:37:07;-2.40;99.90
35531;DHT22;21637;53.352;-6.356;2022-12-16T08:39:51;-2.40;99.90
35531;DHT22;21637;53.352;-6.356;2022-12-16T08:42:46;-2.50;99.90
35531;DHT22;21637;53.352;-6.356;2022-12-16T08:45:30;-2.50;99.90
35531;DHT22;21637;53.352;-6.356;2022-12-16T08:48:14;-2.60;99.90
35531;DHT22;21637;53.352;-6.356;2022-12-16T08:51:02;-2.50;99.90
35531;DHT22;21637;53.352;-6.356;2022-12-16T08:53:46;-2.50;99.90
35531;DHT22;21637;53.352;-6.356;2022-12-16T08:56:30;-2.50;99.90
35531;DHT22;21637;53.352;-6.356;2022-12-16T08:59:14;-2.60;99.90
35531;DHT22;21637;53.352;-6.356;2022-12-16T09:01:59;-2.50;99.90
35531;DHT22;21637;53.352;-6.356;2022-12-16T09:04:43;-2.50;99.90
35531;DHT22;21637;53.352;-6.356;2022-12-16T09:07:27;-2.50;99.90
35531;DHT22;21637;53.352;-6.356;2022-12-16T09:10:11;-2.50;99.90
35531;DHT22;21637;53.352;-6.356;2022-12-16T09:13:06;-2.50;99.90
35531;DHT22;21637;53.352;-6.356;2022-12-16T09:15:50;-2.50;99.90
35531;DHT22;21637;53.352;-6.356;2022-12-16T09:18:34;-2.50;99.90
35531;DHT22;21637;53.352;-6.356;2022-12-16T09:21:18;-2.50;99.90
35531;DHT22;21637;53.352;-6.356;2022-12-16T09:24:02;-2.50;99.90
35531;DHT22;21637;53.352;-6.356;2022-12-16T09:27:06;-2.60;99.90
35531;DHT22;21637;53.352;-6.356;2022-12-16T09:29:50;-2.50;99.90
35531;DHT22;21637;53.352;-6.356;2022-12-16T09:32:39;-2.50;99.90
35531;DHT22;21637;53.352;-6.356;2022-12-16T09:35:23;-2.50;99.90
35531;DHT22;21637;53.352;-6.356;2022-12-16T09:38:07;-2.50;99.90
35531;DHT22;21637;53.352;-6.356;2022-12-16T09:40:51;-2.40;99.90
35531;DHT22;21637;53.352;-6.356;2022-12-16T09:46:29;-2.40;99.90
35531;DHT22;21637;53.352;-6.356;2022-12-16T09:52:43;-2.30;99.90
35531;DHT22;21637;53.352;-6.356;2022-12-16T09:55:48;-2.30;99.90
35531;DHT22;21637;53.352;-6.356;2022-12-16T10:01:48;-2.20;99.90
35531;DHT22;21637;53.352;-6.356;2022-12-16T10:04:33;-2.10;99.90
35531;DHT22;21637;53.352;-6.356;2022-12-16T10:07:18;-2.10;99.90
35531;DHT22;21637;53.352;-6.356;2022-12-16T10:10:16;-2.10;99.90
35531;DHT22;21637;53.352;-6.356;2022-12-16T10:13:14;-2.10;99.90
35531;DHT22;21637;53.352;-6.356;2022-12-16T10:16:06;-2.00;99.90
35531;DHT22;21637;53.352;-6.356;2022-12-16T10:21:44;-1.90;99.90
35531;DHT22;21637;53.352;-6.356;2022-12-16T10:27:20;-1.90;99.90
35531;DHT22;21637;53.352;-6.356;2022-12-16T10:30:10;-1.80;99.90
35531;DHT22;21637;53.352;-6.356;2022-12-16T10:32:54;-1.70;99.90
35531;DHT22;21637;53.352;-6.356;2022-12-16T10:35:46;-1.70;99.90
35531;DHT22;21637;53.352;-6.356;2022-12-16T10:41:20;-1.60;99.90
35531;DHT22;21637;53.352;-6.356;2022-12-16T10:44:15;-1.50;99.90
35531;DHT22;21637;53.352;-6.356;2022-12-16T10:47:02;-1.40;99.90
35531;DHT22;21637;53.352;-6.356;2022-12-16T10:49:46;-1.30;99.90
35531;DHT22;21637;53.352;-6.356;2022-12-16T10:52:31;-1.30;99.90
35531;DHT22;21637;53.352;-6.356;2022-12-16T10:58:19;-1.20;99.90
35531;DHT22;21637;53.352;-6.356;2022-12-16T11:01:23;-1.10;99.90
35531;DHT22;21637;53.352;-6.356;2022-12-16T11:07:29;-1.00;99.90
35531;DHT22;21637;53.352;-6.356;2022-12-16T11:10:23;-1.00;99.90
35531;DHT22;21637;53.352;-6.356;2022-12-16T11:13:24;-0.90;99.90
35531;DHT22;21637;53.352;-6.356;2022-12-16T11:16:09;-0.80;99.90
35531;DHT22;21637;53.352;-6.356;2022-12-16T11:18:54;-0.80;99.90
35531;DHT22;21637;53.352;-6.356;2022-12-16T11:21:38;-0.80;99.90
35531;DHT22;21637;53.352;-6.356;2022-12-16T11:24:22;-0.70;99.90
35531;DHT22;21637;53.352;-6.356;2022-12-16T11:27:25;-0.60;99.90
35531;DHT22;21637;53.352;-6.356;2022-12-16T11:30:29;-0.50;99.90
35531;DHT22;21637;53.352;-6.356;2022-12-16T11:33:18;-0.40;99.90
35531;DHT22;21637;53.352;-6.356;2022-12-16T11:36:13;-0.30;99.90
35531;DHT22;21637;53.352;-6.356;2022-12-16T11:39:00;-0.30;99.90
35531;DHT22;21637;53.352;-6.356;2022-12-16T11:41:46;-0.20;99.90
35531;DHT22;21637;53.352;-6.356;2022-12-16T11:44:33;-0.10;99.90
35531;DHT22;21637;53.352;-6.356;2022-12-16T11:50:12;0.00;99.90
35531;DHT22;21637;53.352;-6.356;2022-12-16T11:52:57;0.10;99.90
35531;DHT22;21637;53.352;-6.356;2022-12-16T11:55:43;0.20;99.90
35531;DHT22;21637;53.352;-6.356;2022-12-16T12:01:13;0.30;99.90
35531;DHT22;21637;53.352;-6.356;2022-12-16T12:04:00;0.40;99.90
35531;DHT22;21637;53.352;-6.356;2022-12-16T12:06:54;0.50;99.90
35531;DHT22;21637;53.352;-6.356;2022-12-16T12:09:40;0.50;99.90
35531;DHT22;21637;53.352;-6.356;2022-12-16T12:12:35;0.60;99.90
35531;DHT22;21637;53.352;-6.356;2022-12-16T12:15:24;0.60;99.90
35531;DHT22;21637;53.352;-6.356;2022-12-16T12:23:59;0.80;99.90
35531;DHT22;21637;53.352;-6.356;2022-12-16T12:27:30;0.90;99.90
35531;DHT22;21637;53.352;-6.356;2022-12-16T12:32:45;1.00;99.90
35531;DHT22;21637;53.352;-6.356;2022-12-16T12:42:06;1.40;99.90
35531;DHT22;21637;53.352;-6.356;2022-12-16T12:48:02;1.70;99.90
35531;DHT22;21637;53.352;-6.356;2022-12-16T12:50:53;1.70;99.90
35531;DHT22;21637;53.352;-6.356;2022-12-16T12:53:47;1.70;99.90
35531;DHT22;21637;53.352;-6.356;2022-12-16T12:59:29;1.70;99.90
35531;DHT22;21637;53.352;-6.356;2022-12-16T13:02:16;1.70;99.90
35531;DHT22;21637;53.352;-6.356;2022-12-16T13:05:03;1.90;99.90
35531;DHT22;21637;53.352;-6.356;2022-12-16T13:11:11;1.90;99.90
35531;DHT22;21637;53.352;-6.356;2022-12-16T13:13:55;1.90;99.90
35531;DHT22;21637;53.352;-6.356;2022-12-16T13:22:27;2.10;99.90
35531;DHT22;21637;53.352;-6.356;2022-12-16T13:28:31;2.10;99.90
35531;DHT22;21637;53.352;-6.356;2022-12-16T13:31:15;2.10;99.90
35531;DHT22;21637;53.352;-6.356;2022-12-16T13:34:04;2.10;99.90
35531;DHT22;21637;53.352;-6.356;2022-12-16T13:36:55;2.10;99.90
35531;DHT22;21637;53.352;-6.356;2022-12-16T13:39:41;2.20;99.90
35531;DHT22;21637;53.352;-6.356;2022-12-16T13:48:27;2.20;99.90
35531;DHT22;21637;53.352;-6.356;2022-12-16T13:51:54;2.20;99.90
35531;DHT22;21637;53.352;-6.356;2022-12-16T13:54:16;2.20;99.90
35531;DHT22;21637;53.352;-6.356;2022-12-16T13:57:00;2.20;99.90
35531;DHT22;21637;53.352;-6.356;2022-12-16T13:59:46;2.20;99.90
35531;DHT22;21637;53.352;-6.356;2022-12-16T14:02:31;2.20;99.90
35531;DHT22;21637;53.352;-6.356;2022-12-16T14:05:22;2.30;99.90
35531;DHT22;21637;53.352;-6.356;2022-12-16T14:08:10;2.30;99.90
35531;DHT22;21637;53.352;-6.356;2022-12-16T14:10:57;2.30;99.90
35531;DHT22;21637;53.352;-6.356;2022-12-16T14:22:07;2.30;99.90
35531;DHT22;21637;53.352;-6.356;2022-12-16T14:25:01;2.30;99.90
35531;DHT22;21637;53.352;-6.356;2022-12-16T14:27:45;2.30;99.90
35531;DHT22;21637;53.352;-6.356;2022-12-16T14:30:29;2.30;99.90
35531;DHT22;21637;53.352;-6.356;2022-12-16T14:33:20;2.30;99.90
35531;DHT22;21637;53.352;-6.356;2022-12-16T14:36:17;2.20;99.90
35531;DHT22;21637;53.352;-6.356;2022-12-16T14:39:01;2.20;99.90
35531;DHT22;21637;53.352;-6.356;2022-12-16T14:41:48;2.20;99.90
35531;DHT22;21637;53.352;-6.356;2022-12-16T14:44:33;2.30;99.90
35531;DHT22;21637;53.352;-6.356;2022-12-16T14:47:18;2.30;99.90
35531;DHT22;21637;53.352;-6.356;2022-12-16T14:50:03;2.30;99.90
35531;DHT22;21637;53.352;-6.356;2022-12-16T14:53:11;2.30;99.90
35531;DHT22;21637;53.352;-6.356;2022-12-16T14:56:07;2.30;99.90
35531;DHT22;21637;53.352;-6.356;2022-12-16T14:59:05;2.30;99.90
35531;DHT22;21637;53.352;-6.356;2022-12-16T15:01:49;2.30;99.90
35531;DHT22;21637;53.352;-6.356;2022-12-16T15:04:34;2.20;99.90
35531;DHT22;21637;53.352;-6.356;2022-12-16T15:07:18;2.20;99.90
35531;DHT22;21637;53.352;-6.356;2022-12-16T15:10:02;2.10;99.90
35531;DHT22;21637;53.352;-6.356;2022-12-16T15:12:46;2.10;99.90
35531;DHT22;21637;53.352;-6.356;2022-12-16T15:15:34;2.10;99.90
35531;DHT22;21637;53.352;-6.356;2022-12-16T15:18:22;2.10;99.90
35531;DHT22;21637;53.352;-6.356;2022-12-16T15:21:08;2.20;99.90
35531;DHT22;21637;53.352;-6.356;2022-12-16T15:23:52;2.10;99.90
35531;DHT22;21637;53.352;-6.356;2022-12-16T15:26:36;2.20;99.90
35531;DHT22;21637;53.352;-6.356;2022-12-16T15:29:28;2.20;99.90
35531;DHT22;21637;53.352;-6.356;2022-12-16T15:38:30;2.30;99.90
35531;DHT22;21637;53.352;-6.356;2022-12-16T15:44:05;2.10;99.90
35531;DHT22;21637;53.352;-6.356;2022-12-16T15:46:55;2.10;99.90
35531;DHT22;21637;53.352;-6.356;2022-12-16T15:49:40;2.00;99.90
35531;DHT22;21637;53.352;-6.356;2022-12-16T15:55:23;2.00;99.90
35531;DHT22;21637;53.352;-6.356;2022-12-16T15:58:11;1.90;99.90
35531;DHT22;21637;53.352;-6.356;2022-12-16T16:00:56;1.80;99.90
35531;DHT22;21637;53.352;-6.356;2022-12-16T16:03:42;1.80;99.90
35531;DHT22;21637;53.352;-6.356;2022-12-16T16:06:30;1.80;99.90
35531;DHT22;21637;53.352;-6.356;2022-12-16T16:09:25;1.80;99.90
35531;DHT22;21637;53.352;-6.356;2022-12-16T16:12:13;1.90;99.90
35531;DHT22;21637;53.352;-6.356;2022-12-16T16:14:57;1.80;99.90
35531;DHT22;21637;53.352;-6.356;2022-12-16T16:17:41;1.80;99.90
35531;DHT22;21637;53.352;-6.356;2022-12-16T16:20:25;1.80;99.90
35531;DHT22;21637;53.352;-6.356;2022-12-16T16:23:09;1.70;99.90
35531;DHT22;21637;53.352;-6.356;2022-12-16T16:25:54;1.70;99.90
35531;DHT22;21637;53.352;-6.356;2022-12-16T16:28:38;1.70;99.90
35531;DHT22;21637;53.352;-6.356;2022-12-16T16:31:22;1.80;99.90
35531;DHT22;21637;53.352;-6.356;2022-12-16T16:34:06;1.80;99.90
35531;DHT22;21637;53.352;-6.356;2022-12-16T16:36:54;1.70;99.90
35531;DHT22;21637;53.352;-6.356;2022-12-16T16:39:39;1.70;99.90
35531;DHT22;21637;53.352;-6.356;2022-12-16T16:42:24;1.70;99.90
35531;DHT22;21637;53.352;-6.356;2022-12-16T16:45:08;1.80;99.90
35531;DHT22;21637;53.352;-6.356;2022-12-16T16:47:53;1.90;99.90
35531;DHT22;21637;53.352;-6.356;2022-12-16T16:50:39;1.80;99.90
35531;DHT22;21637;53.352;-6.356;2022-12-16T16:53:23;2.00;99.90
35531;DHT22;21637;53.352;-6.356;2022-12-16T16:56:07;2.00;99.90
35531;DHT22;21637;53.352;-6.356;2022-12-16T16:58:53;2.10;99.90
35531;DHT22;21637;53.352;-6.356;2022-12-16T17:01:37;2.10;99.90
35531;DHT22;21637;53.352;-6.356;2022-12-16T17:04:22;2.00;99.90
35531;DHT22;21637;53.352;-6.356;2022-12-16T17:07:06;2.00;99.90
35531;DHT22;21637;53.352;-6.356;2022-12-16T17:09:50;1.90;99.90
35531;DHT22;21637;53.352;-6.356;2022-12-16T17:12:34;2.00;99.90
35531;DHT22;21637;53.352;-6.356;2022-12-16T17:15:19;1.90;99.90
35531;DHT22;21637;53.352;-6.356;2022-12-16T17:18:03;1.80;99.90
35531;DHT22;21637;53.352;-6.356;2022-12-16T17:20:48;1.90;99.90
35531;DHT22;21637;53.352;-6.356;2022-12-16T17:23:32;1.90;99.90
35531;DHT22;21637;53.352;-6.356;2022-12-16T17:26:16;2.00;99.90
35531;DHT22;21637;53.352;-6.356;2022-12-16T17:29:00;2.10;99.90
35531;DHT22;21637;53.352;-6.356;2022-12-16T17:31:44;2.10;99.90
35531;DHT22;21637;53.352;-6.356;2022-12-16T17:34:28;2.10;99.90
35531;DHT22;21637;53.352;-6.356;2022-12-16T17:37:12;2.10;99.90
35531;DHT22;21637;53.352;-6.356;2022-12-16T17:39:57;2.20;99.90
35531;DHT22;21637;53.352;-6.356;2022-12-16T17:42:41;2.10;99.90
35531;DHT22;21637;53.352;-6.356;2022-12-16T17:45:25;2.10;99.90
35531;DHT22;21637;53.352;-6.356;2022-12-16T17:48:09;2.10;99.90
35531;DHT22;21637;53.352;-6.356;2022-12-16T17:50:53;2.10;99.90
35531;DHT22;21637;53.352;-6.356;2022-12-16T17:53:37;2.00;99.90
35531;DHT22;21637;53.352;-6.356;2022-12-16T17:56:22;2.00;99.90
35531;DHT22;21637;53.352;-6.356;2022-12-16T17:59:07;2.00;99.90
35531;DHT22;21637;53.352;-6.356;2022-12-16T18:01:51;1.90;99.90
35531;DHT22;21637;53.352;-6.356;2022-12-16T18:04:55;1.80;99.90
35531;DHT22;21637;53.352;-6.356;2022-12-16T18:07:39;1.80;99.90
35531;DHT22;21637;53.352;-6.356;2022-12-16T18:10:23;1.70;99.90
35531;DHT22;21637;53.352;-6.356;2022-12-16T18:13:07;1.70;99.90
35531;DHT22;21637;53.352;-6.356;2022-12-16T18:15:52;1.70;99.90
35531;DHT22;21637;53.352;-6.356;2022-12-16T18:18:36;1.70;99.90
35531;DHT22;21637;53.352;-6.356;2022-12-16T18:21:20;1.90;99.90
35531;DHT22;21637;53.352;-6.356;2022-12-16T18:24:05;1.90;99.90
35531;DHT22;21637;53.352;-6.356;2022-12-16T18:26:49;1.90;99.90
35531;DHT22;21637;53.352;-6.356;2022-12-16T18:29:33;1.90;99.90
35531;DHT22;21637;53.352;-6.356;2022-12-16T18:32:18;1.90;99.90
35531;DHT22;21637;53.352;-6.356;2022-12-16T18:35:02;1.80;99.90
35531;DHT22;21637;53.352;-6.356;2022-12-16T18:37:46;1.90;99.90
35531;DHT22;21637;53.352;-6.356;2022-12-16T18:40:30;1.90;99.90
35531;DHT22;21637;53.352;-6.356;2022-12-16T18:43:14;1.90;99.90
35531;DHT22;21637;53.352;-6.356;2022-12-16T18:45:58;1.80;99.90
35531;DHT22;21637;53.352;-6.356;2022-12-16T18:48:43;1.80;99.90
35531;DHT22;21637;53.352;-6.356;2022-12-16T18:51:27;1.80;99.90